sensor_id;sensor_type;location;lat;lon;timestamp;P1;durP1;ratioP1;P2;durP2;ratioP2
20623;SDS011;10471;42.736;23.346;2022-07-12T00:00:52;5.03;;;4.53;;
20623;SDS011;10471;42.736;23.346;2022-07-12T00:03:17;5.13;;;4.73;;
20623;SDS011;10471;42.736;23.346;2022-07-12T00:05:43;6.40;;;4.80;;
20623;SDS011;10471;42.736;23.346;2022-07-12T00:08:08;4.97;;;4.47;;
20623;SDS011;10471;42.736;23.346;2022-07-12T00:10:34;4.60;;;4.20;;
20623;SDS011;10471;42.736;23.346;2022-07-12T00:12:59;9.93;;;5.10;;
20623;SDS011;10471;42.736;23.346;2022-07-12T00:15:24;5.03;;;4.40;;
20623;SDS011;10471;42.736;23.346;2022-07-12T00:17:50;6.43;;;4.93;;
20623;SDS011;10471;42.736;23.346;2022-07-12T00:20:16;6.03;;;4.73;;
20623;SDS011;10471;42.736;23.346;2022-07-12T00:22:41;6.53;;;5.80;;
20623;SDS011;10471;42.736;23.346;2022-07-12T00:25:07;5.10;;;4.70;;
20623;SDS011;10471;42.736;23.346;2022-07-12T00:27:33;5.67;;;4.77;;
20623;SDS011;10471;42.736;23.346;2022-07-12T00:29:59;5.67;;;5.13;;
20623;SDS011;10471;42.736;23.346;2022-07-12T00:32:24;5.90;;;5.00;;
20623;SDS011;10471;42.736;23.346;2022-07-12T00:34:49;5.67;;;4.93;;
20623;SDS011;10471;42.736;23.346;2022-07-12T00:37:15;6.17;;;5.50;;
20623;SDS011;10471;42.736;23.346;2022-07-12T00:39:40;6.20;;;5.27;;
20623;SDS011;10471;42.736;23.346;2022-07-12T00:42:06;7.43;;;5.60;;
20623;SDS011;10471;42.736;23.346;2022-07-12T00:44:31;7.30;;;5.10;;
20623;SDS011;10471;42.736;23.346;2022-07-12T00:46:58;5.93;;;5.43;;
20623;SDS011;10471;42.736;23.346;2022-07-12T00:49:27;7.60;;;5.27;;
20623;SDS011;10471;42.736;23.346;2022-07-12T00:51:53;5.67;;;5.10;;
20623;SDS011;10471;42.736;23.346;2022-07-12T00:54:19;5.70;;;5.13;;
20623;SDS011;10471;42.736;23.346;2022-07-12T00:56:45;6.10;;;5.50;;
20623;SDS011;10471;42.736;23.346;2022-07-12T00:59:11;6.40;;;5.80;;
20623;SDS011;10471;42.736;23.346;2022-07-12T01:01:36;6.73;;;5.07;;
20623;SDS011;10471;42.736;23.346;2022-07-12T01:04:03;6.63;;;5.33;;
20623;SDS011;10471;42.736;23.346;2022-07-12T01:06:29;5.63;;;5.13;;
20623;SDS011;10471;42.736;23.346;2022-07-12T01:08:56;8.13;;;5.23;;
20623;SDS011;10471;42.736;23.346;2022-07-12T01:11:24;6.27;;;5.33;;
20623;SDS011;10471;42.736;23.346;2022-07-12T01:13:51;6.40;;;5.50;;
20623;SDS011;10471;42.736;23.346;2022-07-12T01:16:17;5.93;;;5.33;;
20623;SDS011;10471;42.736;23.346;2022-07-12T01:18:44;5.97;;;5.37;;
20623;SDS011;10471;42.736;23.346;2022-07-12T01:21:09;6.93;;;5.90;;
20623;SDS011;10471;42.736;23.346;2022-07-12T01:23:37;6.17;;;5.57;;
20623;SDS011;10471;42.736;23.346;2022-07-12T01:26:04;6.43;;;5.83;;
20623;SDS011;10471;42.736;23.346;2022-07-12T01:28:30;6.67;;;5.60;;
20623;SDS011;10471;42.736;23.346;2022-07-12T01:30:55;6.70;;;6.00;;
20623;SDS011;10471;42.736;23.346;2022-07-12T01:33:21;6.70;;;6.10;;
20623;SDS011;10471;42.736;23.346;2022-07-12T01:35:47;7.03;;;5.87;;
20623;SDS011;10471;42.736;23.346;2022-07-12T01:38:13;6.73;;;6.13;;
20623;SDS011;10471;42.736;23.346;2022-07-12T01:40:39;6.63;;;6.00;;
20623;SDS011;10471;42.736;23.346;2022-07-12T01:43:04;6.67;;;5.53;;
20623;SDS011;10471;42.736;23.346;2022-07-12T01:45:31;6.53;;;5.93;;
20623;SDS011;10471;42.736;23.346;2022-07-12T01:47:56;8.73;;;6.03;;
20623;SDS011;10471;42.736;23.346;2022-07-12T01:50:23;6.00;;;5.50;;
20623;SDS011;10471;42.736;23.346;2022-07-12T01:52:49;7.27;;;6.00;;
20623;SDS011;10471;42.736;23.346;2022-07-12T01:55:16;6.30;;;5.70;;
20623;SDS011;10471;42.736;23.346;2022-07-12T01:57:42;6.67;;;6.07;;
20623;SDS011;10471;42.736;23.346;2022-07-12T02:00:08;8.80;;;5.37;;
20623;SDS011;10471;42.736;23.346;2022-07-12T02:02:34;8.17;;;5.83;;
20623;SDS011;10471;42.736;23.346;2022-07-12T02:05:00;7.80;;;5.90;;
20623;SDS011;10471;42.736;23.346;2022-07-12T02:07:26;7.27;;;6.03;;
20623;SDS011;10471;42.736;23.346;2022-07-12T02:09:52;7.57;;;6.10;;
20623;SDS011;10471;42.736;23.346;2022-07-12T02:12:18;6.87;;;6.17;;
20623;SDS011;10471;42.736;23.346;2022-07-12T02:14:43;12.13;;;7.10;;
20623;SDS011;10471;42.736;23.346;2022-07-12T02:17:08;7.70;;;6.00;;
20623;SDS011;10471;42.736;23.346;2022-07-12T02:19:34;7.07;;;6.37;;
20623;SDS011;10471;42.736;23.346;2022-07-12T02:21:59;7.80;;;6.30;;
20623;SDS011;10471;42.736;23.346;2022-07-12T02:24:25;6.50;;;5.90;;
20623;SDS011;10471;42.736;23.346;2022-07-12T02:26:50;7.40;;;6.57;;
20623;SDS011;10471;42.736;23.346;2022-07-12T02:29:15;7.77;;;6.97;;
20623;SDS011;10471;42.736;23.346;2022-07-12T02:31:41;6.80;;;6.10;;
20623;SDS011;10471;42.736;23.346;2022-07-12T02:34:06;9.20;;;6.47;;
20623;SDS011;10471;42.736;23.346;2022-07-12T02:36:32;6.63;;;6.03;;
20623;SDS011;10471;42.736;23.346;2022-07-12T02:38:58;7.33;;;6.23;;
20623;SDS011;10471;42.736;23.346;2022-07-12T02:41:27;8.20;;;6.23;;
20623;SDS011;10471;42.736;23.346;2022-07-12T02:43:53;9.17;;;6.77;;
20623;SDS011;10471;42.736;23.346;2022-07-12T02:46:18;7.17;;;6.47;;
20623;SDS011;10471;42.736;23.346;2022-07-12T02:48:44;7.57;;;6.53;;
20623;SDS011;10471;42.736;23.346;2022-07-12T02:51:09;7.07;;;6.37;;
20623;SDS011;10471;42.736;23.346;2022-07-12T02:53:35;6.93;;;6.20;;
20623;SDS011;10471;42.736;23.346;2022-07-12T02:56:01;13.67;;;6.43;;
20623;SDS011;10471;42.736;23.346;2022-07-12T02:58:28;6.93;;;6.23;;
20623;SDS011;10471;42.736;23.346;2022-07-12T03:00:53;9.13;;;6.37;;
20623;SDS011;10471;42.736;23.346;2022-07-12T03:03:19;9.57;;;5.97;;
20623;SDS011;10471;42.736;23.346;2022-07-12T03:05:45;6.30;;;5.70;;
20623;SDS011;10471;42.736;23.346;2022-07-12T03:08:11;6.60;;;5.90;;
20623;SDS011;10471;42.736;23.346;2022-07-12T03:10:37;6.90;;;6.20;;
20623;SDS011;10471;42.736;23.346;2022-07-12T03:13:03;8.03;;;5.83;;
20623;SDS011;10471;42.736;23.346;2022-07-12T03:15:29;7.57;;;6.13;;
20623;SDS011;10471;42.736;23.346;2022-07-12T03:17:55;7.03;;;6.33;;
20623;SDS011;10471;42.736;23.346;2022-07-12T03:20:21;7.83;;;6.03;;
20623;SDS011;10471;42.736;23.346;2022-07-12T03:22:47;7.57;;;6.10;;
20623;SDS011;10471;42.736;23.346;2022-07-12T03:25:18;7.10;;;5.77;;
20623;SDS011;10471;42.736;23.346;2022-07-12T03:27:44;6.43;;;5.80;;
20623;SDS011;10471;42.736;23.346;2022-07-12T03:30:10;6.20;;;5.60;;
20623;SDS011;10471;42.736;23.346;2022-07-12T03:32:37;6.53;;;5.93;;
20623;SDS011;10471;42.736;23.346;2022-07-12T03:35:03;8.00;;;5.90;;
20623;SDS011;10471;42.736;23.346;2022-07-12T03:40:23;6.60;;;5.90;;
20623;SDS011;10471;42.736;23.346;2022-07-12T03:42:49;6.93;;;6.33;;
20623;SDS011;10471;42.736;23.346;2022-07-12T03:45:16;7.47;;;6.77;;
20623;SDS011;10471;42.736;23.346;2022-07-12T03:47:43;9.27;;;6.27;;
20623;SDS011;10471;42.736;23.346;2022-07-12T03:50:09;7.20;;;6.60;;
20623;SDS011;10471;42.736;23.346;2022-07-12T03:52:38;7.43;;;6.73;;
20623;SDS011;10471;42.736;23.346;2022-07-12T03:55:04;9.13;;;6.97;;
20623;SDS011;10471;42.736;23.346;2022-07-12T03:57:30;9.97;;;7.07;;
20623;SDS011;10471;42.736;23.346;2022-07-12T03:59:56;10.13;;;7.10;;
20623;SDS011;10471;42.736;23.346;2022-07-12T04:02:21;8.30;;;7.50;;
20623;SDS011;10471;42.736;23.346;2022-07-12T04:04:47;13.10;;;8.67;;
20623;SDS011;10471;42.736;23.346;2022-07-12T04:07:13;8.93;;;7.50;;
20623;SDS011;10471;42.736;23.346;2022-07-12T04:09:38;10.37;;;8.40;;
20623;SDS011;10471;42.736;23.346;2022-07-12T04:12:04;9.97;;;7.70;;
20623;SDS011;10471;42.736;23.346;2022-07-12T04:14:30;10.10;;;8.03;;
20623;SDS011;10471;42.736;23.346;2022-07-12T04:16:56;15.27;;;8.90;;
20623;SDS011;10471;42.736;23.346;2022-07-12T04:19:22;8.37;;;7.57;;
20623;SDS011;10471;42.736;23.346;2022-07-12T04:21:53;15.63;;;8.30;;
20623;SDS011;10471;42.736;23.346;2022-07-12T04:24:20;7.67;;;6.93;;
20623;SDS011;10471;42.736;23.346;2022-07-12T04:26:46;6.83;;;6.20;;
20623;SDS011;10471;42.736;23.346;2022-07-12T04:29:11;8.50;;;6.30;;
20623;SDS011;10471;42.736;23.346;2022-07-12T04:31:36;6.73;;;6.13;;
20623;SDS011;10471;42.736;23.346;2022-07-12T04:34:02;6.20;;;5.60;;
20623;SDS011;10471;42.736;23.346;2022-07-12T04:36:27;6.93;;;5.90;;
20623;SDS011;10471;42.736;23.346;2022-07-12T04:38:53;6.23;;;5.63;;
20623;SDS011;10471;42.736;23.346;2022-07-12T04:41:18;6.77;;;6.03;;
20623;SDS011;10471;42.736;23.346;2022-07-12T04:43:43;6.57;;;5.87;;
20623;SDS011;10471;42.736;23.346;2022-07-12T04:46:09;8.47;;;5.67;;
20623;SDS011;10471;42.736;23.346;2022-07-12T04:48:35;6.33;;;5.73;;
20623;SDS011;10471;42.736;23.346;2022-07-12T04:51:01;7.07;;;5.80;;
20623;SDS011;10471;42.736;23.346;2022-07-12T04:53:27;6.00;;;5.43;;
20623;SDS011;10471;42.736;23.346;2022-07-12T04:55:56;5.87;;;5.37;;
20623;SDS011;10471;42.736;23.346;2022-07-12T04:58:22;7.03;;;5.23;;
20623;SDS011;10471;42.736;23.346;2022-07-12T05:00:49;6.43;;;4.87;;
20623;SDS011;10471;42.736;23.346;2022-07-12T05:03:14;6.23;;;5.30;;
20623;SDS011;10471;42.736;23.346;2022-07-12T05:05:40;5.60;;;5.00;;
20623;SDS011;10471;42.736;23.346;2022-07-12T05:08:05;5.17;;;4.77;;
20623;SDS011;10471;42.736;23.346;2022-07-12T05:10:31;6.87;;;5.73;;
20623;SDS011;10471;42.736;23.346;2022-07-12T05:12:56;6.13;;;5.20;;
20623;SDS011;10471;42.736;23.346;2022-07-12T05:15:22;5.60;;;5.20;;
20623;SDS011;10471;42.736;23.346;2022-07-12T05:17:47;5.67;;;5.10;;
20623;SDS011;10471;42.736;23.346;2022-07-12T05:20:13;6.10;;;4.77;;
20623;SDS011;10471;42.736;23.346;2022-07-12T05:22:38;4.60;;;3.70;;
20623;SDS011;10471;42.736;23.346;2022-07-12T05:25:06;4.63;;;4.23;;
20623;SDS011;10471;42.736;23.346;2022-07-12T05:27:32;6.03;;;4.00;;
20623;SDS011;10471;42.736;23.346;2022-07-12T05:29:57;6.93;;;4.17;;
20623;SDS011;10471;42.736;23.346;2022-07-12T05:32:22;5.50;;;4.00;;
20623;SDS011;10471;42.736;23.346;2022-07-12T05:34:48;5.60;;;3.90;;
20623;SDS011;10471;42.736;23.346;2022-07-12T05:37:14;5.80;;;4.47;;
20623;SDS011;10471;42.736;23.346;2022-07-12T05:39:40;8.30;;;4.33;;
20623;SDS011;10471;42.736;23.346;2022-07-12T05:42:05;5.63;;;3.90;;
20623;SDS011;10471;42.736;23.346;2022-07-12T05:44:30;7.90;;;3.57;;
20623;SDS011;10471;42.736;23.346;2022-07-12T05:46:56;5.17;;;3.70;;
20623;SDS011;10471;42.736;23.346;2022-07-12T05:49:21;9.37;;;4.00;;
20623;SDS011;10471;42.736;23.346;2022-07-12T05:51:46;8.47;;;4.53;;
20623;SDS011;10471;42.736;23.346;2022-07-12T05:54:30;9.57;;;4.07;;
20623;SDS011;10471;42.736;23.346;2022-07-12T05:56:56;7.73;;;4.37;;
20623;SDS011;10471;42.736;23.346;2022-07-12T05:59:21;6.70;;;3.70;;
20623;SDS011;10471;42.736;23.346;2022-07-12T06:01:46;8.23;;;3.83;;
20623;SDS011;10471;42.736;23.346;2022-07-12T06:04:12;9.47;;;3.77;;
20623;SDS011;10471;42.736;23.346;2022-07-12T06:06:37;9.73;;;3.77;;
20623;SDS011;10471;42.736;23.346;2022-07-12T06:09:03;9.43;;;3.90;;
20623;SDS011;10471;42.736;23.346;2022-07-12T06:11:28;8.13;;;3.70;;
20623;SDS011;10471;42.736;23.346;2022-07-12T06:13:54;6.03;;;3.57;;
20623;SDS011;10471;42.736;23.346;2022-07-12T06:16:19;9.73;;;3.60;;
20623;SDS011;10471;42.736;23.346;2022-07-12T06:18:45;9.27;;;3.43;;
20623;SDS011;10471;42.736;23.346;2022-07-12T06:21:10;6.17;;;3.60;;
20623;SDS011;10471;42.736;23.346;2022-07-12T06:23:35;7.20;;;2.80;;
20623;SDS011;10471;42.736;23.346;2022-07-12T06:26:01;8.07;;;2.77;;
20623;SDS011;10471;42.736;23.346;2022-07-12T06:28:27;4.53;;;2.53;;
20623;SDS011;10471;42.736;23.346;2022-07-12T06:30:52;6.20;;;2.83;;
20623;SDS011;10471;42.736;23.346;2022-07-12T06:33:18;8.47;;;2.67;;
20623;SDS011;10471;42.736;23.346;2022-07-12T06:35:43;6.77;;;2.57;;
20623;SDS011;10471;42.736;23.346;2022-07-12T06:38:08;6.67;;;2.80;;
20623;SDS011;10471;42.736;23.346;2022-07-12T06:40:34;6.23;;;2.60;;
20623;SDS011;10471;42.736;23.346;2022-07-12T06:42:59;4.20;;;2.20;;
20623;SDS011;10471;42.736;23.346;2022-07-12T06:45:24;7.37;;;2.30;;
20623;SDS011;10471;42.736;23.346;2022-07-12T06:47:50;4.13;;;2.03;;
20623;SDS011;10471;42.736;23.346;2022-07-12T06:50:17;7.97;;;2.20;;
20623;SDS011;10471;42.736;23.346;2022-07-12T06:52:43;3.77;;;1.70;;
20623;SDS011;10471;42.736;23.346;2022-07-12T06:55:08;6.00;;;2.00;;
20623;SDS011;10471;42.736;23.346;2022-07-12T06:57:34;7.20;;;2.03;;
20623;SDS011;10471;42.736;23.346;2022-07-12T07:00:00;6.80;;;2.00;;
20623;SDS011;10471;42.736;23.346;2022-07-12T07:02:26;5.33;;;2.07;;
20623;SDS011;10471;42.736;23.346;2022-07-12T07:04:51;3.03;;;1.80;;
20623;SDS011;10471;42.736;23.346;2022-07-12T07:07:17;5.60;;;1.90;;
20623;SDS011;10471;42.736;23.346;2022-07-12T07:09:42;6.00;;;1.93;;
20623;SDS011;10471;42.736;23.346;2022-07-12T07:12:08;2.33;;;1.53;;
20623;SDS011;10471;42.736;23.346;2022-07-12T07:14:33;4.27;;;1.80;;
20623;SDS011;10471;42.736;23.346;2022-07-12T07:16:59;7.60;;;1.90;;
20623;SDS011;10471;42.736;23.346;2022-07-12T07:19:24;4.40;;;1.73;;
20623;SDS011;10471;42.736;23.346;2022-07-12T07:21:51;7.23;;;1.93;;
20623;SDS011;10471;42.736;23.346;2022-07-12T07:24:17;6.67;;;2.00;;
20623;SDS011;10471;42.736;23.346;2022-07-12T07:26:43;3.87;;;2.17;;
20623;SDS011;10471;42.736;23.346;2022-07-12T07:29:08;6.30;;;1.80;;
20623;SDS011;10471;42.736;23.346;2022-07-12T07:31:52;3.90;;;2.00;;
20623;SDS011;10471;42.736;23.346;2022-07-12T07:34:17;3.63;;;1.70;;
20623;SDS011;10471;42.736;23.346;2022-07-12T07:36:43;4.60;;;1.70;;
20623;SDS011;10471;42.736;23.346;2022-07-12T07:39:08;7.57;;;1.80;;
20623;SDS011;10471;42.736;23.346;2022-07-12T07:41:34;5.67;;;1.50;;
20623;SDS011;10471;42.736;23.346;2022-07-12T07:44:00;4.10;;;1.40;;
20623;SDS011;10471;42.736;23.346;2022-07-12T07:46:25;4.33;;;1.73;;
20623;SDS011;10471;42.736;23.346;2022-07-12T07:48:51;3.67;;;1.33;;
20623;SDS011;10471;42.736;23.346;2022-07-12T07:51:16;3.73;;;1.50;;
20623;SDS011;10471;42.736;23.346;2022-07-12T07:53:42;3.60;;;1.60;;
20623;SDS011;10471;42.736;23.346;2022-07-12T07:56:07;6.83;;;1.60;;
20623;SDS011;10471;42.736;23.346;2022-07-12T07:58:32;4.27;;;1.47;;
20623;SDS011;10471;42.736;23.346;2022-07-12T08:00:58;4.10;;;1.23;;
20623;SDS011;10471;42.736;23.346;2022-07-12T08:03:23;3.27;;;1.50;;
20623;SDS011;10471;42.736;23.346;2022-07-12T08:05:50;2.77;;;1.30;;
20623;SDS011;10471;42.736;23.346;2022-07-12T08:08:16;5.80;;;1.47;;
20623;SDS011;10471;42.736;23.346;2022-07-12T08:10:42;7.07;;;1.87;;
20623;SDS011;10471;42.736;23.346;2022-07-12T08:13:08;3.13;;;1.50;;
20623;SDS011;10471;42.736;23.346;2022-07-12T08:15:33;4.63;;;1.53;;
20623;SDS011;10471;42.736;23.346;2022-07-12T08:17:59;4.47;;;1.57;;
20623;SDS011;10471;42.736;23.346;2022-07-12T08:20:24;2.30;;;1.17;;
20623;SDS011;10471;42.736;23.346;2022-07-12T08:22:50;4.70;;;1.40;;
20623;SDS011;10471;42.736;23.346;2022-07-12T08:25:15;3.27;;;1.37;;
20623;SDS011;10471;42.736;23.346;2022-07-12T08:27:41;4.53;;;1.50;;
20623;SDS011;10471;42.736;23.346;2022-07-12T08:30:07;3.37;;;1.40;;
20623;SDS011;10471;42.736;23.346;2022-07-12T08:32:33;5.17;;;1.40;;
20623;SDS011;10471;42.736;23.346;2022-07-12T08:34:58;4.93;;;1.40;;
20623;SDS011;10471;42.736;23.346;2022-07-12T08:37:24;3.23;;;1.30;;
20623;SDS011;10471;42.736;23.346;2022-07-12T08:39:50;3.10;;;1.30;;
20623;SDS011;10471;42.736;23.346;2022-07-12T08:42:16;3.73;;;1.47;;
20623;SDS011;10471;42.736;23.346;2022-07-12T08:44:42;4.63;;;1.60;;
20623;SDS011;10471;42.736;23.346;2022-07-12T08:47:08;6.67;;;1.37;;
20623;SDS011;10471;42.736;23.346;2022-07-12T08:49:34;4.07;;;1.30;;
20623;SDS011;10471;42.736;23.346;2022-07-12T08:52:02;4.13;;;1.50;;
20623;SDS011;10471;42.736;23.346;2022-07-12T08:54:49;2.77;;;1.30;;
20623;SDS011;10471;42.736;23.346;2022-07-12T08:57:27;2.83;;;1.40;;
20623;SDS011;10471;42.736;23.346;2022-07-12T09:00:00;5.43;;;1.40;;
20623;SDS011;10471;42.736;23.346;2022-07-12T09:02:26;3.43;;;1.20;;
20623;SDS011;10471;42.736;23.346;2022-07-12T09:05:07;3.23;;;1.20;;
20623;SDS011;10471;42.736;23.346;2022-07-12T09:07:37;4.57;;;1.30;;
20623;SDS011;10471;42.736;23.346;2022-07-12T09:10:06;3.47;;;1.40;;
20623;SDS011;10471;42.736;23.346;2022-07-12T09:12:33;4.70;;;1.30;;
20623;SDS011;10471;42.736;23.346;2022-07-12T09:17:37;3.27;;;1.10;;
20623;SDS011;10471;42.736;23.346;2022-07-12T09:20:03;4.40;;;1.20;;
20623;SDS011;10471;42.736;23.346;2022-07-12T09:22:29;3.17;;;1.30;;
20623;SDS011;10471;42.736;23.346;2022-07-12T09:24:55;3.07;;;1.10;;
20623;SDS011;10471;42.736;23.346;2022-07-12T09:27:26;4.40;;;1.20;;
20623;SDS011;10471;42.736;23.346;2022-07-12T09:29:52;7.00;;;1.40;;
20623;SDS011;10471;42.736;23.346;2022-07-12T09:32:17;2.37;;;1.20;;
20623;SDS011;10471;42.736;23.346;2022-07-12T09:35:02;4.33;;;1.07;;
20623;SDS011;10471;42.736;23.346;2022-07-12T09:37:47;4.67;;;1.03;;
20623;SDS011;10471;42.736;23.346;2022-07-12T09:40:14;3.53;;;1.10;;
20623;SDS011;10471;42.736;23.346;2022-07-12T09:42:39;5.30;;;1.37;;
20623;SDS011;10471;42.736;23.346;2022-07-12T09:45:06;1.87;;;1.20;;
20623;SDS011;10471;42.736;23.346;2022-07-12T09:47:34;4.43;;;1.30;;
20623;SDS011;10471;42.736;23.346;2022-07-12T09:50:00;3.10;;;1.10;;
20623;SDS011;10471;42.736;23.346;2022-07-12T09:52:26;3.50;;;1.30;;
20623;SDS011;10471;42.736;23.346;2022-07-12T09:54:53;4.87;;;1.60;;
20623;SDS011;10471;42.736;23.346;2022-07-12T09:57:20;3.47;;;1.10;;
20623;SDS011;10471;42.736;23.346;2022-07-12T09:59:57;5.43;;;1.20;;
20623;SDS011;10471;42.736;23.346;2022-07-12T10:02:23;3.10;;;0.90;;
20623;SDS011;10471;42.736;23.346;2022-07-12T10:04:49;4.20;;;1.30;;
20623;SDS011;10471;42.736;23.346;2022-07-12T10:07:15;2.53;;;1.30;;
20623;SDS011;10471;42.736;23.346;2022-07-12T10:09:44;6.73;;;1.40;;
20623;SDS011;10471;42.736;23.346;2022-07-12T10:12:12;2.93;;;1.17;;
20623;SDS011;10471;42.736;23.346;2022-07-12T10:14:41;3.80;;;1.23;;
20623;SDS011;10471;42.736;23.346;2022-07-12T10:17:07;3.37;;;1.00;;
20623;SDS011;10471;42.736;23.346;2022-07-12T10:19:36;4.60;;;1.10;;
20623;SDS011;10471;42.736;23.346;2022-07-12T10:22:03;4.80;;;1.43;;
20623;SDS011;10471;42.736;23.346;2022-07-12T10:27:02;3.77;;;1.30;;
20623;SDS011;10471;42.736;23.346;2022-07-12T10:29:45;4.33;;;1.30;;
20623;SDS011;10471;42.736;23.346;2022-07-12T10:34:57;3.67;;;1.20;;
20623;SDS011;10471;42.736;23.346;2022-07-12T10:37:27;4.03;;;1.30;;
20623;SDS011;10471;42.736;23.346;2022-07-12T10:40:15;2.53;;;1.30;;
20623;SDS011;10471;42.736;23.346;2022-07-12T10:45:30;2.63;;;1.10;;
20623;SDS011;10471;42.736;23.346;2022-07-12T10:48:00;2.53;;;0.97;;
20623;SDS011;10471;42.736;23.346;2022-07-12T10:58:29;4.87;;;1.00;;
20623;SDS011;10471;42.736;23.346;2022-07-12T11:01:03;3.80;;;1.37;;
20623;SDS011;10471;42.736;23.346;2022-07-12T11:03:53;2.60;;;1.07;;
20623;SDS011;10471;42.736;23.346;2022-07-12T11:06:33;2.40;;;1.10;;
20623;SDS011;10471;42.736;23.346;2022-07-12T11:09:02;2.53;;;1.00;;
20623;SDS011;10471;42.736;23.346;2022-07-12T11:11:33;1.67;;;1.17;;
20623;SDS011;10471;42.736;23.346;2022-07-12T11:14:04;2.80;;;1.10;;
20623;SDS011;10471;42.736;23.346;2022-07-12T11:16:29;2.13;;;1.20;;
20623;SDS011;10471;42.736;23.346;2022-07-12T11:18:55;2.97;;;1.10;;
20623;SDS011;10471;42.736;23.346;2022-07-12T11:21:21;5.07;;;1.10;;
20623;SDS011;10471;42.736;23.346;2022-07-12T11:23:48;1.67;;;1.00;;
20623;SDS011;10471;42.736;23.346;2022-07-12T11:26:14;3.20;;;1.10;;
20623;SDS011;10471;42.736;23.346;2022-07-12T11:28:41;3.47;;;1.30;;
20623;SDS011;10471;42.736;23.346;2022-07-12T11:31:11;3.27;;;1.20;;
20623;SDS011;10471;42.736;23.346;2022-07-12T11:33:39;2.97;;;1.30;;
20623;SDS011;10471;42.736;23.346;2022-07-12T11:36:06;2.83;;;1.27;;
20623;SDS011;10471;42.736;23.346;2022-07-12T11:38:34;3.60;;;1.27;;
20623;SDS011;10471;42.736;23.346;2022-07-12T11:41:02;2.67;;;1.13;;
20623;SDS011;10471;42.736;23.346;2022-07-12T11:43:29;7.43;;;1.20;;
20623;SDS011;10471;42.736;23.346;2022-07-12T11:45:55;3.50;;;1.37;;
20623;SDS011;10471;42.736;23.346;2022-07-12T11:48:21;3.40;;;1.47;;
20623;SDS011;10471;42.736;23.346;2022-07-12T11:50:48;4.60;;;1.20;;
20623;SDS011;10471;42.736;23.346;2022-07-12T11:53:24;3.17;;;1.30;;
20623;SDS011;10471;42.736;23.346;2022-07-12T11:55:51;4.27;;;1.60;;
20623;SDS011;10471;42.736;23.346;2022-07-12T11:58:21;4.97;;;1.20;;
20623;SDS011;10471;42.736;23.346;2022-07-12T12:00:48;4.27;;;1.30;;
20623;SDS011;10471;42.736;23.346;2022-07-12T12:03:14;4.53;;;1.20;;
20623;SDS011;10471;42.736;23.346;2022-07-12T12:05:42;2.67;;;1.17;;
20623;SDS011;10471;42.736;23.346;2022-07-12T12:08:09;4.27;;;1.17;;
20623;SDS011;10471;42.736;23.346;2022-07-12T12:10:36;2.53;;;1.27;;
20623;SDS011;10471;42.736;23.346;2022-07-12T12:13:02;2.60;;;1.30;;
20623;SDS011;10471;42.736;23.346;2022-07-12T12:15:29;3.20;;;1.30;;
20623;SDS011;10471;42.736;23.346;2022-07-12T12:20:28;3.90;;;1.37;;
20623;SDS011;10471;42.736;23.346;2022-07-12T12:22:59;2.03;;;1.10;;
20623;SDS011;10471;42.736;23.346;2022-07-12T12:25:26;3.17;;;1.00;;
20623;SDS011;10471;42.736;23.346;2022-07-12T12:30:34;2.87;;;1.27;;
20623;SDS011;10471;42.736;23.346;2022-07-12T12:33:12;2.43;;;1.10;;
20623;SDS011;10471;42.736;23.346;2022-07-12T12:35:38;2.50;;;1.30;;
20623;SDS011;10471;42.736;23.346;2022-07-12T12:38:11;1.57;;;1.00;;
20623;SDS011;10471;42.736;23.346;2022-07-12T12:40:38;2.93;;;1.30;;
20623;SDS011;10471;42.736;23.346;2022-07-12T12:43:11;3.97;;;1.10;;
20623;SDS011;10471;42.736;23.346;2022-07-12T12:45:51;6.53;;;1.10;;
20623;SDS011;10471;42.736;23.346;2022-07-12T12:48:28;3.93;;;1.50;;
20623;SDS011;10471;42.736;23.346;2022-07-12T12:51:15;3.50;;;1.30;;
20623;SDS011;10471;42.736;23.346;2022-07-12T12:53:41;5.23;;;1.10;;
20623;SDS011;10471;42.736;23.346;2022-07-12T12:56:07;4.27;;;1.43;;
20623;SDS011;10471;42.736;23.346;2022-07-12T12:58:34;3.43;;;1.40;;
20623;SDS011;10471;42.736;23.346;2022-07-12T13:01:00;2.83;;;1.20;;
20623;SDS011;10471;42.736;23.346;2022-07-12T13:03:26;5.00;;;1.33;;
20623;SDS011;10471;42.736;23.346;2022-07-12T13:05:51;3.57;;;1.20;;
20623;SDS011;10471;42.736;23.346;2022-07-12T13:08:17;3.07;;;1.10;;
20623;SDS011;10471;42.736;23.346;2022-07-12T13:10:44;4.70;;;1.40;;
20623;SDS011;10471;42.736;23.346;2022-07-12T13:13:11;3.00;;;1.10;;
20623;SDS011;10471;42.736;23.346;2022-07-12T13:15:40;4.80;;;1.40;;
20623;SDS011;10471;42.736;23.346;2022-07-12T13:18:05;4.00;;;1.00;;
20623;SDS011;10471;42.736;23.346;2022-07-12T13:20:31;1.87;;;1.27;;
20623;SDS011;10471;42.736;23.346;2022-07-12T13:22:58;2.67;;;1.20;;
20623;SDS011;10471;42.736;23.346;2022-07-12T13:25:24;4.27;;;1.00;;
20623;SDS011;10471;42.736;23.346;2022-07-12T13:27:50;3.50;;;1.20;;
20623;SDS011;10471;42.736;23.346;2022-07-12T13:30:16;2.63;;;1.03;;
20623;SDS011;10471;42.736;23.346;2022-07-12T13:32:42;3.57;;;1.30;;
20623;SDS011;10471;42.736;23.346;2022-07-12T13:35:08;2.80;;;1.27;;
20623;SDS011;10471;42.736;23.346;2022-07-12T13:37:36;3.43;;;1.10;;
20623;SDS011;10471;42.736;23.346;2022-07-12T13:40:04;3.40;;;1.20;;
20623;SDS011;10471;42.736;23.346;2022-07-12T13:42:39;3.63;;;1.33;;
20623;SDS011;10471;42.736;23.346;2022-07-12T13:45:09;5.20;;;1.40;;
20623;SDS011;10471;42.736;23.346;2022-07-12T13:47:38;6.10;;;1.50;;
20623;SDS011;10471;42.736;23.346;2022-07-12T13:50:04;3.13;;;1.30;;
20623;SDS011;10471;42.736;23.346;2022-07-12T13:52:31;4.37;;;1.50;;
20623;SDS011;10471;42.736;23.346;2022-07-12T13:54:56;2.07;;;1.17;;
20623;SDS011;10471;42.736;23.346;2022-07-12T13:57:22;3.07;;;1.07;;
20623;SDS011;10471;42.736;23.346;2022-07-12T13:59:48;3.63;;;1.10;;
20623;SDS011;10471;42.736;23.346;2022-07-12T14:02:13;7.60;;;1.33;;
20623;SDS011;10471;42.736;23.346;2022-07-12T14:04:39;3.90;;;1.77;;
20623;SDS011;10471;42.736;23.346;2022-07-12T14:07:04;2.57;;;1.07;;
20623;SDS011;10471;42.736;23.346;2022-07-12T14:09:30;4.20;;;1.10;;
20623;SDS011;10471;42.736;23.346;2022-07-12T14:11:55;1.47;;;1.00;;
20623;SDS011;10471;42.736;23.346;2022-07-12T14:14:21;2.03;;;1.00;;
20623;SDS011;10471;42.736;23.346;2022-07-12T14:17:05;7.00;;;1.40;;
20623;SDS011;10471;42.736;23.346;2022-07-12T14:19:31;5.43;;;1.40;;
20623;SDS011;10471;42.736;23.346;2022-07-12T14:21:57;1.77;;;1.30;;
20623;SDS011;10471;42.736;23.346;2022-07-12T14:24:22;2.63;;;1.10;;
20623;SDS011;10471;42.736;23.346;2022-07-12T14:26:48;3.97;;;1.00;;
20623;SDS011;10471;42.736;23.346;2022-07-12T14:29:13;6.03;;;1.60;;
20623;SDS011;10471;42.736;23.346;2022-07-12T14:31:39;1.97;;;1.20;;
20623;SDS011;10471;42.736;23.346;2022-07-12T14:34:04;3.47;;;1.00;;
20623;SDS011;10471;42.736;23.346;2022-07-12T14:36:30;3.13;;;1.13;;
20623;SDS011;10471;42.736;23.346;2022-07-12T14:38:55;2.27;;;1.20;;
20623;SDS011;10471;42.736;23.346;2022-07-12T14:41:20;4.33;;;1.20;;
20623;SDS011;10471;42.736;23.346;2022-07-12T14:43:46;1.60;;;1.20;;
20623;SDS011;10471;42.736;23.346;2022-07-12T14:46:12;5.27;;;1.97;;
20623;SDS011;10471;42.736;23.346;2022-07-12T14:48:38;4.13;;;1.00;;
20623;SDS011;10471;42.736;23.346;2022-07-12T14:51:03;2.43;;;1.30;;
20623;SDS011;10471;42.736;23.346;2022-07-12T14:53:28;2.33;;;1.00;;
20623;SDS011;10471;42.736;23.346;2022-07-12T14:55:54;2.10;;;1.30;;
20623;SDS011;10471;42.736;23.346;2022-07-12T14:58:19;1.80;;;0.97;;